sensor_id;sensor_type;location;lat;lon;timestamp;P1;durP1;ratioP1;P2;durP2;ratioP2
1204;SDS011;592;48.764;9.174;2022-08-16T00:00:12;8.10;;;5.40;;
1204;SDS011;592;48.764;9.174;2022-08-16T00:02:41;7.07;;;4.93;;
1204;SDS011;592;48.764;9.174;2022-08-16T00:05:09;9.30;;;5.03;;
1204;SDS011;592;48.764;9.174;2022-08-16T00:07:37;6.83;;;4.20;;
1204;SDS011;592;48.764;9.174;2022-08-16T00:10:05;6.97;;;4.70;;
1204;SDS011;592;48.764;9.174;2022-08-16T00:12:33;6.30;;;4.50;;
1204;SDS011;592;48.764;9.174;2022-08-16T00:15:00;6.80;;;4.97;;
1204;SDS011;592;48.764;9.174;2022-08-16T00:17:33;9.50;;;5.57;;
1204;SDS011;592;48.764;9.174;2022-08-16T00:19:59;7.00;;;4.67;;
1204;SDS011;592;48.764;9.174;2022-08-16T00:22:26;8.23;;;5.17;;
1204;SDS011;592;48.764;9.174;2022-08-16T00:24:53;8.50;;;5.03;;
1204;SDS011;592;48.764;9.174;2022-08-16T00:27:19;8.80;;;5.30;;
1204;SDS011;592;48.764;9.174;2022-08-16T00:29:47;6.90;;;5.40;;
1204;SDS011;592;48.764;9.174;2022-08-16T00:32:14;6.23;;;4.80;;
1204;SDS011;592;48.764;9.174;2022-08-16T00:34:42;6.90;;;4.60;;
1204;SDS011;592;48.764;9.174;2022-08-16T00:37:09;6.83;;;4.50;;
1204;SDS011;592;48.764;9.174;2022-08-16T00:39:36;9.47;;;6.13;;
1204;SDS011;592;48.764;9.174;2022-08-16T00:42:02;7.23;;;5.20;;
1204;SDS011;592;48.764;9.174;2022-08-16T00:44:29;9.00;;;5.10;;
1204;SDS011;592;48.764;9.174;2022-08-16T00:46:57;6.90;;;4.97;;
1204;SDS011;592;48.764;9.174;2022-08-16T00:49:30;12.93;;;4.57;;
1204;SDS011;592;48.764;9.174;2022-08-16T00:51:59;9.67;;;5.47;;
1204;SDS011;592;48.764;9.174;2022-08-16T00:54:27;8.20;;;5.80;;
1204;SDS011;592;48.764;9.174;2022-08-16T00:56:57;7.73;;;5.30;;
1204;SDS011;592;48.764;9.174;2022-08-16T00:59:26;7.33;;;5.27;;
1204;SDS011;592;48.764;9.174;2022-08-16T01:01:56;7.67;;;5.00;;
1204;SDS011;592;48.764;9.174;2022-08-16T01:04:23;7.40;;;4.90;;
1204;SDS011;592;48.764;9.174;2022-08-16T01:06:52;9.40;;;5.50;;
1204;SDS011;592;48.764;9.174;2022-08-16T01:09:20;12.00;;;5.80;;
1204;SDS011;592;48.764;9.174;2022-08-16T01:11:48;7.50;;;4.90;;
1204;SDS011;592;48.764;9.174;2022-08-16T01:14:16;9.53;;;5.80;;
1204;SDS011;592;48.764;9.174;2022-08-16T01:16:54;10.73;;;6.00;;
1204;SDS011;592;48.764;9.174;2022-08-16T01:19:25;9.03;;;5.57;;
1204;SDS011;592;48.764;9.174;2022-08-16T01:21:55;7.80;;;5.47;;
1204;SDS011;592;48.764;9.174;2022-08-16T01:24:27;9.03;;;4.97;;
1204;SDS011;592;48.764;9.174;2022-08-16T01:26:58;9.03;;;5.37;;
1204;SDS011;592;48.764;9.174;2022-08-16T01:29:28;8.03;;;5.80;;
1204;SDS011;592;48.764;9.174;2022-08-16T01:31:59;8.30;;;5.20;;
1204;SDS011;592;48.764;9.174;2022-08-16T01:34:26;7.60;;;5.23;;
1204;SDS011;592;48.764;9.174;2022-08-16T01:36:57;7.30;;;5.67;;
1204;SDS011;592;48.764;9.174;2022-08-16T01:39:27;6.80;;;4.93;;
1204;SDS011;592;48.764;9.174;2022-08-16T01:41:54;6.33;;;5.00;;
1204;SDS011;592;48.764;9.174;2022-08-16T01:44:21;8.27;;;5.40;;
1204;SDS011;592;48.764;9.174;2022-08-16T01:46:48;7.00;;;5.30;;
1204;SDS011;592;48.764;9.174;2022-08-16T01:49:18;9.47;;;5.40;;
1204;SDS011;592;48.764;9.174;2022-08-16T01:51:47;7.43;;;5.50;;
1204;SDS011;592;48.764;9.174;2022-08-16T01:54:19;8.33;;;5.40;;
1204;SDS011;592;48.764;9.174;2022-08-16T01:56:47;8.67;;;4.40;;
1204;SDS011;592;48.764;9.174;2022-08-16T01:59:14;7.00;;;5.00;;
1204;SDS011;592;48.764;9.174;2022-08-16T02:01:41;7.83;;;5.27;;
1204;SDS011;592;48.764;9.174;2022-08-16T02:04:09;8.53;;;5.10;;
1204;SDS011;592;48.764;9.174;2022-08-16T02:06:36;9.60;;;5.27;;
1204;SDS011;592;48.764;9.174;2022-08-16T02:09:04;11.83;;;5.30;;
1204;SDS011;592;48.764;9.174;2022-08-16T02:11:32;6.80;;;4.57;;
1204;SDS011;592;48.764;9.174;2022-08-16T02:14:00;6.30;;;5.10;;
1204;SDS011;592;48.764;9.174;2022-08-16T02:16:27;6.50;;;4.80;;
1204;SDS011;592;48.764;9.174;2022-08-16T02:18:54;8.00;;;5.90;;
1204;SDS011;592;48.764;9.174;2022-08-16T02:21:20;9.23;;;5.83;;
1204;SDS011;592;48.764;9.174;2022-08-16T02:23:47;7.60;;;5.60;;
1204;SDS011;592;48.764;9.174;2022-08-16T02:26:14;7.60;;;5.50;;
1204;SDS011;592;48.764;9.174;2022-08-16T02:28:41;8.83;;;6.07;;
1204;SDS011;592;48.764;9.174;2022-08-16T02:31:11;8.87;;;5.70;;
1204;SDS011;592;48.764;9.174;2022-08-16T02:33:40;7.47;;;5.60;;
1204;SDS011;592;48.764;9.174;2022-08-16T02:36:07;8.57;;;6.00;;
1204;SDS011;592;48.764;9.174;2022-08-16T02:38:36;7.43;;;5.23;;
1204;SDS011;592;48.764;9.174;2022-08-16T02:41:05;6.70;;;5.20;;
1204;SDS011;592;48.764;9.174;2022-08-16T02:43:33;6.83;;;5.10;;
1204;SDS011;592;48.764;9.174;2022-08-16T02:46:01;8.10;;;5.43;;
1204;SDS011;592;48.764;9.174;2022-08-16T02:48:31;7.13;;;5.27;;
1204;SDS011;592;48.764;9.174;2022-08-16T02:50:57;7.57;;;5.90;;
1204;SDS011;592;48.764;9.174;2022-08-16T02:53:25;7.90;;;5.17;;
1204;SDS011;592;48.764;9.174;2022-08-16T02:55:52;8.77;;;5.50;;
1204;SDS011;592;48.764;9.174;2022-08-16T02:58:19;8.97;;;6.03;;
1204;SDS011;592;48.764;9.174;2022-08-16T03:00:47;9.47;;;5.90;;
1204;SDS011;592;48.764;9.174;2022-08-16T03:03:14;6.63;;;5.13;;
1204;SDS011;592;48.764;9.174;2022-08-16T03:05:42;8.50;;;5.73;;
1204;SDS011;592;48.764;9.174;2022-08-16T03:08:11;8.03;;;5.70;;
1204;SDS011;592;48.764;9.174;2022-08-16T03:10:38;7.53;;;5.20;;
1204;SDS011;592;48.764;9.174;2022-08-16T03:13:04;8.63;;;6.10;;
1204;SDS011;592;48.764;9.174;2022-08-16T03:15:32;6.80;;;5.70;;
1204;SDS011;592;48.764;9.174;2022-08-16T03:17:58;7.40;;;5.43;;
1204;SDS011;592;48.764;9.174;2022-08-16T03:20:26;7.43;;;5.33;;
1204;SDS011;592;48.764;9.174;2022-08-16T03:22:54;9.13;;;6.40;;
1204;SDS011;592;48.764;9.174;2022-08-16T03:25:21;7.83;;;6.00;;
1204;SDS011;592;48.764;9.174;2022-08-16T03:27:48;6.87;;;5.40;;
1204;SDS011;592;48.764;9.174;2022-08-16T03:30:18;7.63;;;5.20;;
1204;SDS011;592;48.764;9.174;2022-08-16T03:32:47;8.50;;;5.93;;
1204;SDS011;592;48.764;9.174;2022-08-16T03:35:14;8.53;;;5.30;;
1204;SDS011;592;48.764;9.174;2022-08-16T03:37:42;7.50;;;5.30;;
1204;SDS011;592;48.764;9.174;2022-08-16T03:40:11;7.60;;;5.47;;
1204;SDS011;592;48.764;9.174;2022-08-16T03:42:39;7.03;;;5.23;;
1204;SDS011;592;48.764;9.174;2022-08-16T03:45:07;8.37;;;5.63;;
1204;SDS011;592;48.764;9.174;2022-08-16T03:47:34;8.07;;;5.87;;
1204;SDS011;592;48.764;9.174;2022-08-16T03:50:01;7.53;;;6.00;;
1204;SDS011;592;48.764;9.174;2022-08-16T03:52:28;8.20;;;5.70;;
1204;SDS011;592;48.764;9.174;2022-08-16T03:54:55;8.20;;;6.00;;
1204;SDS011;592;48.764;9.174;2022-08-16T03:57:23;7.00;;;5.60;;
1204;SDS011;592;48.764;9.174;2022-08-16T03:59:50;8.70;;;6.23;;
1204;SDS011;592;48.764;9.174;2022-08-16T04:02:17;7.60;;;5.57;;
1204;SDS011;592;48.764;9.174;2022-08-16T04:04:43;8.83;;;6.10;;
1204;SDS011;592;48.764;9.174;2022-08-16T04:07:11;9.50;;;5.80;;
1204;SDS011;592;48.764;9.174;2022-08-16T04:09:37;8.73;;;6.10;;
1204;SDS011;592;48.764;9.174;2022-08-16T04:12:04;6.90;;;5.10;;
1204;SDS011;592;48.764;9.174;2022-08-16T04:14:33;8.03;;;5.73;;
1204;SDS011;592;48.764;9.174;2022-08-16T04:17:00;8.47;;;5.70;;
1204;SDS011;592;48.764;9.174;2022-08-16T04:19:27;8.30;;;6.00;;
1204;SDS011;592;48.764;9.174;2022-08-16T04:21:53;9.93;;;6.00;;
1204;SDS011;592;48.764;9.174;2022-08-16T04:24:20;8.83;;;5.93;;
1204;SDS011;592;48.764;9.174;2022-08-16T04:26:47;8.67;;;5.97;;
1204;SDS011;592;48.764;9.174;2022-08-16T04:29:14;7.53;;;5.80;;
1204;SDS011;592;48.764;9.174;2022-08-16T04:31:43;9.50;;;6.40;;
1204;SDS011;592;48.764;9.174;2022-08-16T04:34:09;8.17;;;6.40;;
1204;SDS011;592;48.764;9.174;2022-08-16T04:36:36;8.70;;;6.00;;
1204;SDS011;592;48.764;9.174;2022-08-16T04:39:03;8.53;;;6.10;;
1204;SDS011;592;48.764;9.174;2022-08-16T04:41:29;10.90;;;5.97;;
1204;SDS011;592;48.764;9.174;2022-08-16T04:43:57;9.10;;;6.30;;
1204;SDS011;592;48.764;9.174;2022-08-16T04:46:24;9.53;;;5.40;;
1204;SDS011;592;48.764;9.174;2022-08-16T04:48:52;9.40;;;6.40;;
1204;SDS011;592;48.764;9.174;2022-08-16T04:51:19;7.50;;;5.60;;
1204;SDS011;592;48.764;9.174;2022-08-16T04:53:46;8.20;;;5.47;;
1204;SDS011;592;48.764;9.174;2022-08-16T04:56:13;8.63;;;6.10;;
1204;SDS011;592;48.764;9.174;2022-08-16T04:58:40;8.27;;;5.90;;
1204;SDS011;592;48.764;9.174;2022-08-16T05:01:07;7.27;;;5.57;;
1204;SDS011;592;48.764;9.174;2022-08-16T05:03:34;11.13;;;5.90;;
1204;SDS011;592;48.764;9.174;2022-08-16T05:06:02;7.67;;;5.80;;
1204;SDS011;592;48.764;9.174;2022-08-16T05:08:29;8.30;;;5.87;;
1204;SDS011;592;48.764;9.174;2022-08-16T05:10:56;12.67;;;6.40;;
1204;SDS011;592;48.764;9.174;2022-08-16T05:13:24;8.03;;;5.60;;
1204;SDS011;592;48.764;9.174;2022-08-16T05:15:51;8.10;;;5.53;;
1204;SDS011;592;48.764;9.174;2022-08-16T05:18:17;8.80;;;6.00;;
1204;SDS011;592;48.764;9.174;2022-08-16T05:20:44;7.60;;;6.10;;
1204;SDS011;592;48.764;9.174;2022-08-16T05:23:12;7.50;;;5.87;;
1204;SDS011;592;48.764;9.174;2022-08-16T05:25:41;7.90;;;5.57;;
1204;SDS011;592;48.764;9.174;2022-08-16T05:28:07;8.13;;;6.03;;
1204;SDS011;592;48.764;9.174;2022-08-16T05:30:35;8.27;;;5.63;;
1204;SDS011;592;48.764;9.174;2022-08-16T05:33:02;8.50;;;5.83;;
1204;SDS011;592;48.764;9.174;2022-08-16T05:35:29;6.80;;;5.23;;
1204;SDS011;592;48.764;9.174;2022-08-16T05:37:56;8.63;;;5.90;;
1204;SDS011;592;48.764;9.174;2022-08-16T05:40:24;8.10;;;5.90;;
1204;SDS011;592;48.764;9.174;2022-08-16T05:42:51;9.57;;;6.27;;
1204;SDS011;592;48.764;9.174;2022-08-16T05:45:18;8.30;;;6.27;;
1204;SDS011;592;48.764;9.174;2022-08-16T05:47:45;7.90;;;6.00;;
1204;SDS011;592;48.764;9.174;2022-08-16T05:50:11;7.83;;;5.90;;
1204;SDS011;592;48.764;9.174;2022-08-16T05:52:38;9.27;;;6.20;;
1204;SDS011;592;48.764;9.174;2022-08-16T05:55:05;15.00;;;6.17;;
1204;SDS011;592;48.764;9.174;2022-08-16T05:57:34;12.40;;;6.53;;
1204;SDS011;592;48.764;9.174;2022-08-16T06:00:00;9.63;;;5.83;;
1204;SDS011;592;48.764;9.174;2022-08-16T06:02:29;7.80;;;5.60;;
1204;SDS011;592;48.764;9.174;2022-08-16T06:04:58;10.03;;;5.43;;
1204;SDS011;592;48.764;9.174;2022-08-16T06:07:25;8.90;;;6.10;;
1204;SDS011;592;48.764;9.174;2022-08-16T06:09:51;9.40;;;6.20;;
1204;SDS011;592;48.764;9.174;2022-08-16T06:12:22;8.37;;;5.90;;
1204;SDS011;592;48.764;9.174;2022-08-16T06:14:50;13.67;;;6.93;;
1204;SDS011;592;48.764;9.174;2022-08-16T06:17:17;7.83;;;6.37;;
1204;SDS011;592;48.764;9.174;2022-08-16T06:19:43;10.27;;;5.90;;
1204;SDS011;592;48.764;9.174;2022-08-16T06:22:10;9.63;;;7.30;;
1204;SDS011;592;48.764;9.174;2022-08-16T06:24:36;11.07;;;6.10;;
1204;SDS011;592;48.764;9.174;2022-08-16T06:27:03;9.77;;;6.07;;
1204;SDS011;592;48.764;9.174;2022-08-16T06:29:30;8.73;;;5.70;;
1204;SDS011;592;48.764;9.174;2022-08-16T06:31:58;9.80;;;6.27;;
1204;SDS011;592;48.764;9.174;2022-08-16T06:34:25;9.17;;;6.00;;
1204;SDS011;592;48.764;9.174;2022-08-16T06:36:52;9.20;;;5.83;;
1204;SDS011;592;48.764;9.174;2022-08-16T06:39:18;11.77;;;6.73;;
1204;SDS011;592;48.764;9.174;2022-08-16T06:41:45;9.60;;;6.37;;
1204;SDS011;592;48.764;9.174;2022-08-16T06:44:12;12.20;;;6.97;;
1204;SDS011;592;48.764;9.174;2022-08-16T06:46:39;7.70;;;5.40;;
1204;SDS011;592;48.764;9.174;2022-08-16T06:49:08;12.33;;;7.00;;
1204;SDS011;592;48.764;9.174;2022-08-16T06:51:37;9.90;;;6.17;;
1204;SDS011;592;48.764;9.174;2022-08-16T06:54:05;10.80;;;6.77;;
1204;SDS011;592;48.764;9.174;2022-08-16T06:56:32;10.90;;;6.57;;
1204;SDS011;592;48.764;9.174;2022-08-16T06:59:00;17.83;;;7.93;;
1204;SDS011;592;48.764;9.174;2022-08-16T07:01:27;10.53;;;7.13;;
1204;SDS011;592;48.764;9.174;2022-08-16T07:03:54;8.77;;;6.47;;
1204;SDS011;592;48.764;9.174;2022-08-16T07:06:23;8.80;;;6.57;;
1204;SDS011;592;48.764;9.174;2022-08-16T07:08:50;11.93;;;6.63;;
1204;SDS011;592;48.764;9.174;2022-08-16T07:11:16;8.73;;;7.07;;
1204;SDS011;592;48.764;9.174;2022-08-16T07:13:44;12.00;;;6.50;;
1204;SDS011;592;48.764;9.174;2022-08-16T07:16:12;8.87;;;6.80;;
1204;SDS011;592;48.764;9.174;2022-08-16T07:18:40;8.60;;;6.00;;
1204;SDS011;592;48.764;9.174;2022-08-16T07:21:08;8.40;;;6.60;;
1204;SDS011;592;48.764;9.174;2022-08-16T07:23:36;9.17;;;6.63;;
1204;SDS011;592;48.764;9.174;2022-08-16T07:26:04;8.30;;;5.90;;
1204;SDS011;592;48.764;9.174;2022-08-16T07:28:32;8.40;;;6.20;;
1204;SDS011;592;48.764;9.174;2022-08-16T07:30:59;9.73;;;7.30;;
1204;SDS011;592;48.764;9.174;2022-08-16T07:33:27;8.80;;;6.43;;
1204;SDS011;592;48.764;9.174;2022-08-16T07:35:54;9.80;;;6.77;;
1204;SDS011;592;48.764;9.174;2022-08-16T07:38:22;9.80;;;7.20;;
1204;SDS011;592;48.764;9.174;2022-08-16T07:40:52;9.83;;;6.90;;
1204;SDS011;592;48.764;9.174;2022-08-16T07:43:19;11.53;;;7.93;;
1204;SDS011;592;48.764;9.174;2022-08-16T07:45:46;9.87;;;7.63;;
1204;SDS011;592;48.764;9.174;2022-08-16T07:48:13;9.57;;;7.30;;
1204;SDS011;592;48.764;9.174;2022-08-16T07:50:40;8.97;;;7.90;;
1204;SDS011;592;48.764;9.174;2022-08-16T07:53:07;9.73;;;7.87;;
1204;SDS011;592;48.764;9.174;2022-08-16T07:55:34;10.43;;;8.13;;
1204;SDS011;592;48.764;9.174;2022-08-16T07:58:02;12.83;;;8.07;;
1204;SDS011;592;48.764;9.174;2022-08-16T08:00:29;9.57;;;7.30;;
1204;SDS011;592;48.764;9.174;2022-08-16T08:02:56;13.00;;;7.60;;
1204;SDS011;592;48.764;9.174;2022-08-16T08:05:24;12.00;;;7.57;;
1204;SDS011;592;48.764;9.174;2022-08-16T08:07:52;9.03;;;7.20;;
1204;SDS011;592;48.764;9.174;2022-08-16T08:10:20;12.77;;;7.67;;
1204;SDS011;592;48.764;9.174;2022-08-16T08:12:48;12.43;;;8.07;;
1204;SDS011;592;48.764;9.174;2022-08-16T08:15:16;10.20;;;7.30;;
1204;SDS011;592;48.764;9.174;2022-08-16T08:17:45;8.83;;;7.47;;
1204;SDS011;592;48.764;9.174;2022-08-16T08:20:13;8.70;;;7.47;;
1204;SDS011;592;48.764;9.174;2022-08-16T08:22:41;9.73;;;6.90;;
1204;SDS011;592;48.764;9.174;2022-08-16T08:25:11;8.90;;;8.00;;
1204;SDS011;592;48.764;9.174;2022-08-16T08:27:39;9.30;;;7.30;;
1204;SDS011;592;48.764;9.174;2022-08-16T08:30:07;10.47;;;7.53;;
1204;SDS011;592;48.764;9.174;2022-08-16T08:32:36;11.90;;;8.40;;
1204;SDS011;592;48.764;9.174;2022-08-16T08:35:03;9.33;;;7.53;;
1204;SDS011;592;48.764;9.174;2022-08-16T08:37:31;9.63;;;7.37;;
1204;SDS011;592;48.764;9.174;2022-08-16T08:39:59;12.63;;;7.97;;
1204;SDS011;592;48.764;9.174;2022-08-16T08:42:26;11.17;;;8.00;;
1204;SDS011;592;48.764;9.174;2022-08-16T08:44:53;9.30;;;7.43;;
1204;SDS011;592;48.764;9.174;2022-08-16T08:47:20;8.53;;;7.10;;
1204;SDS011;592;48.764;9.174;2022-08-16T08:49:48;9.80;;;7.43;;
1204;SDS011;592;48.764;9.174;2022-08-16T08:52:15;12.27;;;8.13;;
1204;SDS011;592;48.764;9.174;2022-08-16T08:54:42;10.07;;;8.53;;
1204;SDS011;592;48.764;9.174;2022-08-16T08:57:09;14.70;;;8.50;;
1204;SDS011;592;48.764;9.174;2022-08-16T08:59:36;11.43;;;7.50;;
1204;SDS011;592;48.764;9.174;2022-08-16T09:02:04;10.10;;;8.07;;
1204;SDS011;592;48.764;9.174;2022-08-16T09:04:32;10.50;;;8.40;;
1204;SDS011;592;48.764;9.174;2022-08-16T09:07:01;9.93;;;8.47;;
1204;SDS011;592;48.764;9.174;2022-08-16T09:09:28;12.07;;;7.63;;
1204;SDS011;592;48.764;9.174;2022-08-16T09:11:56;12.20;;;7.63;;
1204;SDS011;592;48.764;9.174;2022-08-16T09:14:23;9.57;;;7.70;;
1204;SDS011;592;48.764;9.174;2022-08-16T09:16:50;11.33;;;7.80;;
1204;SDS011;592;48.764;9.174;2022-08-16T09:19:17;10.00;;;7.93;;
1204;SDS011;592;48.764;9.174;2022-08-16T09:21:46;12.27;;;8.20;;
1204;SDS011;592;48.764;9.174;2022-08-16T09:24:15;9.40;;;7.73;;
1204;SDS011;592;48.764;9.174;2022-08-16T09:26:42;11.70;;;8.70;;
1204;SDS011;592;48.764;9.174;2022-08-16T09:29:08;14.83;;;8.40;;
1204;SDS011;592;48.764;9.174;2022-08-16T09:31:35;11.80;;;8.90;;
1204;SDS011;592;48.764;9.174;2022-08-16T09:34:02;9.00;;;7.60;;
1204;SDS011;592;48.764;9.174;2022-08-16T09:36:29;10.70;;;8.03;;
1204;SDS011;592;48.764;9.174;2022-08-16T09:38:56;10.10;;;8.60;;
1204;SDS011;592;48.764;9.174;2022-08-16T09:41:25;12.43;;;8.20;;
1204;SDS011;592;48.764;9.174;2022-08-16T09:43:51;9.80;;;8.60;;
1204;SDS011;592;48.764;9.174;2022-08-16T09:46:18;12.47;;;8.10;;
1204;SDS011;592;48.764;9.174;2022-08-16T09:48:47;10.90;;;7.90;;
1204;SDS011;592;48.764;9.174;2022-08-16T09:51:16;11.43;;;8.23;;
1204;SDS011;592;48.764;9.174;2022-08-16T09:53:43;10.97;;;8.17;;
1204;SDS011;592;48.764;9.174;2022-08-16T09:56:16;9.50;;;8.50;;
1204;SDS011;592;48.764;9.174;2022-08-16T09:58:51;10.67;;;7.57;;
1204;SDS011;592;48.764;9.174;2022-08-16T10:01:18;9.53;;;7.67;;
1204;SDS011;592;48.764;9.174;2022-08-16T10:03:45;9.43;;;8.00;;
1204;SDS011;592;48.764;9.174;2022-08-16T10:06:12;9.50;;;7.07;;
1204;SDS011;592;48.764;9.174;2022-08-16T10:08:39;10.30;;;7.80;;
1204;SDS011;592;48.764;9.174;2022-08-16T10:11:05;8.50;;;7.60;;
1204;SDS011;592;48.764;9.174;2022-08-16T10:13:51;11.63;;;8.13;;
1204;SDS011;592;48.764;9.174;2022-08-16T10:16:20;11.07;;;8.17;;
1204;SDS011;592;48.764;9.174;2022-08-16T10:18:47;10.00;;;8.80;;
1204;SDS011;592;48.764;9.174;2022-08-16T10:21:14;13.40;;;7.90;;
1204;SDS011;592;48.764;9.174;2022-08-16T10:23:41;10.90;;;8.23;;
1204;SDS011;592;48.764;9.174;2022-08-16T10:26:08;11.20;;;8.93;;
1204;SDS011;592;48.764;9.174;2022-08-16T10:28:35;11.57;;;9.00;;
1204;SDS011;592;48.764;9.174;2022-08-16T10:31:04;13.90;;;8.73;;
1204;SDS011;592;48.764;9.174;2022-08-16T10:33:32;11.53;;;8.53;;
1204;SDS011;592;48.764;9.174;2022-08-16T10:35:59;11.73;;;8.80;;
1204;SDS011;592;48.764;9.174;2022-08-16T10:38:28;8.83;;;7.43;;
1204;SDS011;592;48.764;9.174;2022-08-16T10:40:56;9.17;;;8.00;;
1204;SDS011;592;48.764;9.174;2022-08-16T10:43:23;11.50;;;8.03;;
1204;SDS011;592;48.764;9.174;2022-08-16T10:45:49;10.97;;;9.13;;
1204;SDS011;592;48.764;9.174;2022-08-16T10:48:18;13.83;;;8.53;;
1204;SDS011;592;48.764;9.174;2022-08-16T10:50:45;11.55;;;8.30;;
1204;SDS011;592;48.764;9.174;2022-08-16T10:53:12;10.95;;;8.50;;
1204;SDS011;592;48.764;9.174;2022-08-16T10:55:41;13.20;;;8.57;;
1204;SDS011;592;48.764;9.174;2022-08-16T10:58:09;15.80;;;9.33;;
1204;SDS011;592;48.764;9.174;2022-08-16T11:00:38;15.50;;;8.70;;
1204;SDS011;592;48.764;9.174;2022-08-16T11:03:07;11.60;;;9.10;;
1204;SDS011;592;48.764;9.174;2022-08-16T11:05:36;11.30;;;8.60;;
1204;SDS011;592;48.764;9.174;2022-08-16T11:08:06;9.40;;;8.10;;
1204;SDS011;592;48.764;9.174;2022-08-16T11:10:37;9.60;;;7.87;;
1204;SDS011;592;48.764;9.174;2022-08-16T11:13:08;10.47;;;7.87;;
1204;SDS011;592;48.764;9.174;2022-08-16T11:15:36;12.43;;;8.00;;
1204;SDS011;592;48.764;9.174;2022-08-16T11:18:04;9.70;;;8.00;;
1204;SDS011;592;48.764;9.174;2022-08-16T11:20:32;15.30;;;8.77;;
1204;SDS011;592;48.764;9.174;2022-08-16T11:23:01;10.60;;;8.17;;
1204;SDS011;592;48.764;9.174;2022-08-16T11:25:28;9.13;;;7.67;;
1204;SDS011;592;48.764;9.174;2022-08-16T11:27:56;8.30;;;7.33;;
1204;SDS011;592;48.764;9.174;2022-08-16T11:30:25;9.73;;;7.27;;
1204;SDS011;592;48.764;9.174;2022-08-16T11:32:53;11.80;;;7.50;;
1204;SDS011;592;48.764;9.174;2022-08-16T11:35:21;8.90;;;8.00;;
1204;SDS011;592;48.764;9.174;2022-08-16T11:37:51;8.93;;;7.13;;
1204;SDS011;592;48.764;9.174;2022-08-16T11:40:23;9.60;;;7.10;;
1204;SDS011;592;48.764;9.174;2022-08-16T11:42:51;12.80;;;7.70;;
1204;SDS011;592;48.764;9.174;2022-08-16T11:45:18;8.73;;;7.30;;
1204;SDS011;592;48.764;9.174;2022-08-16T11:47:46;10.40;;;7.47;;
1204;SDS011;592;48.764;9.174;2022-08-16T11:50:12;12.00;;;7.90;;
1204;SDS011;592;48.764;9.174;2022-08-16T11:52:40;10.00;;;7.90;;
1204;SDS011;592;48.764;9.174;2022-08-16T11:55:08;8.60;;;6.90;;
1204;SDS011;592;48.764;9.174;2022-08-16T11:57:38;10.63;;;7.47;;
1204;SDS011;592;48.764;9.174;2022-08-16T12:00:07;10.20;;;7.40;;
1204;SDS011;592;48.764;9.174;2022-08-16T12:02:36;10.77;;;7.87;;
1204;SDS011;592;48.764;9.174;2022-08-16T12:05:04;8.93;;;7.30;;
1204;SDS011;592;48.764;9.174;2022-08-16T12:07:32;10.30;;;7.80;;
1204;SDS011;592;48.764;9.174;2022-08-16T12:09:59;12.77;;;7.50;;
1204;SDS011;592;48.764;9.174;2022-08-16T12:12:26;9.83;;;7.60;;
1204;SDS011;592;48.764;9.174;2022-08-16T12:14:54;9.03;;;7.50;;
1204;SDS011;592;48.764;9.174;2022-08-16T12:17:21;8.47;;;7.57;;
1204;SDS011;592;48.764;9.174;2022-08-16T12:19:47;11.00;;;7.80;;
1204;SDS011;592;48.764;9.174;2022-08-16T12:22:14;9.73;;;7.80;;
1204;SDS011;592;48.764;9.174;2022-08-16T12:24:41;9.73;;;6.73;;
1204;SDS011;592;48.764;9.174;2022-08-16T12:27:08;8.23;;;7.43;;
1204;SDS011;592;48.764;9.174;2022-08-16T12:29:35;11.20;;;7.40;;
1204;SDS011;592;48.764;9.174;2022-08-16T12:32:03;9.30;;;7.03;;
1204;SDS011;592;48.764;9.174;2022-08-16T12:34:30;8.97;;;7.67;;
1204;SDS011;592;48.764;9.174;2022-08-16T12:36:57;11.30;;;7.33;;
1204;SDS011;592;48.764;9.174;2022-08-16T12:39:26;9.53;;;7.70;;
1204;SDS011;592;48.764;9.174;2022-08-16T12:41:53;8.53;;;6.80;;
1204;SDS011;592;48.764;9.174;2022-08-16T12:44:20;9.77;;;6.97;;
1204;SDS011;592;48.764;9.174;2022-08-16T12:46:47;9.20;;;8.13;;
1204;SDS011;592;48.764;9.174;2022-08-16T12:49:35;9.10;;;7.80;;
1204;SDS011;592;48.764;9.174;2022-08-16T12:52:01;8.67;;;7.10;;
1204;SDS011;592;48.764;9.174;2022-08-16T12:54:29;8.20;;;6.77;;
1204;SDS011;592;48.764;9.174;2022-08-16T12:56:55;9.60;;;6.47;;
1204;SDS011;592;48.764;9.174;2022-08-16T12:59:22;7.40;;;6.20;;
1204;SDS011;592;48.764;9.174;2022-08-16T13:01:49;10.07;;;7.00;;
1204;SDS011;592;48.764;9.174;2022-08-16T13:04:18;8.20;;;7.30;;
1204;SDS011;592;48.764;9.174;2022-08-16T13:06:46;9.17;;;7.23;;
1204;SDS011;592;48.764;9.174;2022-08-16T13:09:13;9.07;;;6.70;;
1204;SDS011;592;48.764;9.174;2022-08-16T13:11:50;9.33;;;7.27;;
1204;SDS011;592;48.764;9.174;2022-08-16T13:14:24;8.27;;;6.90;;
1204;SDS011;592;48.764;9.174;2022-08-16T13:16:52;9.80;;;7.10;;
1204;SDS011;592;48.764;9.174;2022-08-16T13:19:19;9.30;;;7.43;;
1204;SDS011;592;48.764;9.174;2022-08-16T13:21:47;10.03;;;7.60;;
1204;SDS011;592;48.764;9.174;2022-08-16T13:24:13;8.33;;;6.50;;
1204;SDS011;592;48.764;9.174;2022-08-16T13:26:40;10.73;;;6.87;;
1204;SDS011;592;48.764;9.174;2022-08-16T13:29:07;10.27;;;7.17;;
1204;SDS011;592;48.764;9.174;2022-08-16T13:31:33;8.40;;;7.17;;
1204;SDS011;592;48.764;9.174;2022-08-16T13:34:00;8.17;;;7.03;;
1204;SDS011;592;48.764;9.174;2022-08-16T13:36:27;7.87;;;6.13;;
1204;SDS011;592;48.764;9.174;2022-08-16T13:38:56;9.13;;;6.70;;
1204;SDS011;592;48.764;9.174;2022-08-16T13:41:23;7.60;;;6.03;;
1204;SDS011;592;48.764;9.174;2022-08-16T13:43:51;12.40;;;6.60;;
1204;SDS011;592;48.764;9.174;2022-08-16T13:46:18;8.90;;;7.33;;
1204;SDS011;592;48.764;9.174;2022-08-16T13:48:45;9.43;;;5.90;;
1204;SDS011;592;48.764;9.174;2022-08-16T13:51:12;7.00;;;6.30;;
1204;SDS011;592;48.764;9.174;2022-08-16T13:53:40;9.30;;;6.33;;
1204;SDS011;592;48.764;9.174;2022-08-16T13:56:09;9.20;;;5.70;;
1204;SDS011;592;48.764;9.174;2022-08-16T13:58:36;9.50;;;6.23;;
1204;SDS011;592;48.764;9.174;2022-08-16T14:01:03;6.60;;;5.63;;
1204;SDS011;592;48.764;9.174;2022-08-16T14:03:31;9.73;;;5.97;;
1204;SDS011;592;48.764;9.174;2022-08-16T14:05:57;8.10;;;6.50;;
1204;SDS011;592;48.764;9.174;2022-08-16T14:08:24;8.47;;;6.67;;
1204;SDS011;592;48.764;9.174;2022-08-16T14:10:51;8.40;;;5.80;;
1204;SDS011;592;48.764;9.174;2022-08-16T14:13:19;7.13;;;5.83;;
1204;SDS011;592;48.764;9.174;2022-08-16T14:15:46;8.40;;;5.17;;
1204;SDS011;592;48.764;9.174;2022-08-16T14:18:13;8.30;;;6.20;;
1204;SDS011;592;48.764;9.174;2022-08-16T14:20:39;6.97;;;6.17;;
1204;SDS011;592;48.764;9.174;2022-08-16T14:23:06;8.37;;;6.03;;
1204;SDS011;592;48.764;9.174;2022-08-16T14:25:33;7.80;;;5.80;;
1204;SDS011;592;48.764;9.174;2022-08-16T14:28:00;8.80;;;6.70;;
1204;SDS011;592;48.764;9.174;2022-08-16T14:30:28;6.63;;;5.87;;
1204;SDS011;592;48.764;9.174;2022-08-16T14:32:55;9.70;;;6.70;;
1204;SDS011;592;48.764;9.174;2022-08-16T14:35:23;6.70;;;6.00;;
1204;SDS011;592;48.764;9.174;2022-08-16T14:37:51;8.70;;;5.83;;
1204;SDS011;592;48.764;9.174;2022-08-16T14:40:18;7.07;;;5.63;;
1204;SDS011;592;48.764;9.174;2022-08-16T14:42:46;7.83;;;6.07;;
1204;SDS011;592;48.764;9.174;2022-08-16T14:45:14;7.23;;;6.20;;
1204;SDS011;592;48.764;9.174;2022-08-16T14:47:45;6.67;;;5.90;;
1204;SDS011;592;48.764;9.174;2022-08-16T14:50:13;6.77;;;6.07;;
1204;SDS011;592;48.764;9.174;2022-08-16T14:52:41;9.07;;;6.30;;
1204;SDS011;592;48.764;9.174;2022-08-16T14:55:10;7.40;;;5.90;;
1204;SDS011;592;48.764;9.174;2022-08-16T14:57:37;6.80;;;6.10;;
1204;SDS011;592;48.764;9.174;2022-08-16T15:00:07;7.83;;;5.90;;
1204;SDS011;592;48.764;9.174;2022-08-16T15:02:42;6.70;;;6.00;;
1204;SDS011;592;48.764;9.174;2022-08-16T15:05:10;8.27;;;6.80;;
1204;SDS011;592;48.764;9.174;2022-08-16T15:07:39;8.07;;;6.53;;
1204;SDS011;592;48.764;9.174;2022-08-16T15:10:06;8.27;;;6.53;;
1204;SDS011;592;48.764;9.174;2022-08-16T15:12:34;7.50;;;6.07;;
1204;SDS011;592;48.764;9.174;2022-08-16T15:15:03;8.17;;;6.67;;
1204;SDS011;592;48.764;9.174;2022-08-16T15:17:33;8.07;;;6.03;;
1204;SDS011;592;48.764;9.174;2022-08-16T15:20:00;8.53;;;6.70;;
1204;SDS011;592;48.764;9.174;2022-08-16T15:22:32;10.77;;;7.07;;
1204;SDS011;592;48.764;9.174;2022-08-16T15:25:03;9.67;;;6.57;;
1204;SDS011;592;48.764;9.174;2022-08-16T15:27:32;9.50;;;6.73;;
1204;SDS011;592;48.764;9.174;2022-08-16T15:30:06;7.40;;;6.60;;